Ana Sayfa
METAR-TAF:

METAR-TAF

Havaalanları :

Sakız Adası, Yunanistan

Enlem: 38-20N, Boylam: 026-08E, yükseklik: 5 m

Güncel hava durumu gözlemi

Rapor saat 20:50 UTC de 1 saat ve 55 dakika önce yapıldı.
Rüzgar batı/güneybatıdan 1 kt
Sıcaklık 12°C
Nem 94%
Basınç 1018 hPa
Görüş mesafesi 10 km veya daha fazla
1500 m altında bulut yok ve kümülonimbus yok

METAR: LGHI 192050Z 25001KT CAVOK 12/11 Q1018

Saat: 00:45 (22:45 UTC)

Tahmin

Rapor saat 20:00 UTC de 2 saat ve 45 dakika önce yapıldı.
Ayın 19'si saat 21 UTC'den ayın 20'si saat 06 UTC'ye kadar geçerli Tahmin
Rüzgar değişken yönden 5 kt
Görüş mesafesi 10 km veya daha fazla
1800 ft yükseklikte az bulutlu
Olasılık 30%
ayın 20'si saat 00 UTC'den ayın 20'si saat 05 UTC'ye kadar
Görüş mesafesi: 5000 m
1000 ft yükseklikte parçalı bulutlu
Pus

TAF: LGHI 192000Z 1921/2006 VRB05KT 9999 FEW018 PROB30 2000/2005 5000 BR SCT010

4.000'den fazla havaalanı için hava durumu gözlemleri ve tahminleri (METAR ve TAF raporları).

Kullanılabilir istasyonlar harita üzerinde sarı ve kırmızı noktalarla gösterilir.

İstasyonun adını görmek için fareyi noktanın üzerinde gezdirin.

Sonrasında hava gözlem ve tahminlerini görmek için tıklayın.

Haritayı değiştirmek için: yaklaştırmak için siyah artı işaretli yeşil düğmeye ve uzaklaştırmak için de eksi işaretli düğmeye hızla tıklayın; bitişik haritalar için yeşil okları kullanın.


METAR-TAF: